createdAt,value
2022-12-26T00:00:06.573Z,17.90
2022-12-26T00:02:34.535Z,15.75
2022-12-26T00:05:09.443Z,15.38
2022-12-26T00:07:37.343Z,16.65
2022-12-26T00:10:11.343Z,15.90
2022-12-26T00:12:42.387Z,15.00
2022-12-26T00:15:20.374Z,15.23
2022-12-26T00:17:50.956Z,14.15
2022-12-26T00:20:25.524Z,17.83
2022-12-26T00:22:59.430Z,17.38
2022-12-26T00:25:27.638Z,17.27
2022-12-26T00:28:04.714Z,17.65
2022-12-26T00:30:32.182Z,15.02
2022-12-26T00:35:47.431Z,17.08
2022-12-26T00:38:21.825Z,19.27
2022-12-26T00:40:49.484Z,17.88
2022-12-26T00:43:25.653Z,19.20
2022-12-26T00:45:56.647Z,20.00
2022-12-26T00:48:31.600Z,18.17
2022-12-26T00:51:06.538Z,21.73
2022-12-26T00:53:47.538Z,21.30
2022-12-26T00:56:16.292Z,21.85
2022-12-26T00:58:50.514Z,19.83
2022-12-26T01:01:24.366Z,22.50
2022-12-26T01:03:59.533Z,19.30
2022-12-26T01:06:36.256Z,20.25
2022-12-26T01:09:13.417Z,21.92
2022-12-26T01:11:41.122Z,21.02
2022-12-26T01:14:21.365Z,22.70
2022-12-26T01:16:58.980Z,23.50
2022-12-26T01:19:36.141Z,20.38
2022-12-26T01:22:06.784Z,22.13
2022-12-26T01:24:43.401Z,23.60
2022-12-26T01:27:17.759Z,22.00
2022-12-26T01:29:51.303Z,21.35
2022-12-26T01:32:35.750Z,22.60
2022-12-26T01:35:14.811Z,21.08
2022-12-26T01:37:49.496Z,21.95
2022-12-26T01:40:16.931Z,22.73
2022-12-26T01:42:50.321Z,19.60
2022-12-26T01:45:32.657Z,20.75
2022-12-26T01:48:11.442Z,22.05
2022-12-26T01:51:03.790Z,20.17
2022-12-26T01:53:48.335Z,20.63
2022-12-26T01:56:31.254Z,20.17
2022-12-26T01:59:42.428Z,24.20
2022-12-26T02:02:17.684Z,22.38
2022-12-26T02:05:07.982Z,24.70
2022-12-26T02:07:46.196Z,22.85
2022-12-26T02:10:23.366Z,24.90
2022-12-26T02:13:00.362Z,25.48
2022-12-26T02:15:35.399Z,24.95
2022-12-26T02:24:35.381Z,26.15
2022-12-26T02:27:19.528Z,26.23
2022-12-26T02:30:22.594Z,25.85
2022-12-26T02:33:17.445Z,26.52
2022-12-26T02:36:21.431Z,25.73
2022-12-26T02:39:44.831Z,24.42
2022-12-26T02:42:28.325Z,25.45
2022-12-26T02:45:48.613Z,27.80
2022-12-26T02:48:24.682Z,26.05
2022-12-26T02:51:47.460Z,27.10
2022-12-26T02:54:52.187Z,24.92
2022-12-26T02:58:03.222Z,28.08
2022-12-26T03:00:53.074Z,26.45
2022-12-26T03:03:55.675Z,29.80
2022-12-26T03:06:53.561Z,30.98
2022-12-26T03:09:43.689Z,30.38
2022-12-26T03:13:03.522Z,28.67
2022-12-26T03:16:02.778Z,29.52
2022-12-26T03:18:57.683Z,33.22
2022-12-26T03:21:32.666Z,29.50
2022-12-26T03:24:17.515Z,34.13
2022-12-26T03:26:59.580Z,32.97
2022-12-26T03:29:47.080Z,31.48
2022-12-26T03:32:23.735Z,30.92
2022-12-26T03:34:56.205Z,33.03
2022-12-26T03:37:54.922Z,33.45
2022-12-26T03:41:18.762Z,35.53
2022-12-26T03:44:13.718Z,33.58
2022-12-26T03:47:28.701Z,36.08
2022-12-26T03:50:20.815Z,34.38
2022-12-26T03:53:46.491Z,37.08
2022-12-26T03:56:53.679Z,33.22
2022-12-26T03:59:55.932Z,32.42
2022-12-26T04:02:54.640Z,34.53
2022-12-26T04:05:51.023Z,33.55
2022-12-26T04:08:43.579Z,32.03
2022-12-26T04:11:42.506Z,29.75
2022-12-26T04:15:06.138Z,28.65
2022-12-26T04:18:13.834Z,25.85
2022-12-26T04:21:15.936Z,27.45
2022-12-26T04:24:15.889Z,27.20
2022-12-26T04:27:06.823Z,27.30
2022-12-26T04:30:00.415Z,24.73
2022-12-26T04:33:21.133Z,27.50
2022-12-26T04:39:26.640Z,26.00
2022-12-26T04:42:22.352Z,24.42
2022-12-26T04:44:57.314Z,27.98
2022-12-26T04:47:34.610Z,24.58
2022-12-26T04:50:13.497Z,25.00
2022-12-26T04:53:10.064Z,21.17
2022-12-26T04:55:44.908Z,21.98
2022-12-26T04:58:18.347Z,24.35
2022-12-26T05:00:54.508Z,22.63
2022-12-26T05:03:51.194Z,24.10
2022-12-26T05:06:46.736Z,23.40
2022-12-26T05:09:40.032Z,24.23
2022-12-26T05:12:16.620Z,21.40
2022-12-26T05:14:47.414Z,21.45
2022-12-26T05:17:41.856Z,23.50
2022-12-26T05:20:37.435Z,21.33
2022-12-26T05:23:30.860Z,22.50
2022-12-26T05:26:25.579Z,22.60
2022-12-26T05:29:17.970Z,26.52
2022-12-26T05:32:01.248Z,24.02
2022-12-26T05:34:35.648Z,23.88
2022-12-26T05:37:07.906Z,27.65
2022-12-26T05:39:42.709Z,24.33
2022-12-26T05:42:15.732Z,28.08
2022-12-26T05:44:53.584Z,29.45
2022-12-26T05:47:27.553Z,25.45
2022-12-26T05:50:06.960Z,27.55
2022-12-26T05:55:46.027Z,28.48
2022-12-26T05:58:20.559Z,27.25
2022-12-26T06:00:54.672Z,31.23
2022-12-26T06:03:28.570Z,28.48
2022-12-26T06:05:58.080Z,28.98
2022-12-26T06:08:41.621Z,27.17
2022-12-26T06:11:15.557Z,27.73
2022-12-26T06:13:52.291Z,26.35
2022-12-26T06:16:20.514Z,25.00
2022-12-26T06:18:57.155Z,28.48
2022-12-26T06:21:31.828Z,27.05
2022-12-26T06:24:08.649Z,27.48
2022-12-26T06:26:39.081Z,29.92
2022-12-26T06:29:16.745Z,28.00
2022-12-26T06:31:48.021Z,28.85
2022-12-26T06:34:25.706Z,27.77
2022-12-26T06:36:56.583Z,27.08
2022-12-26T06:39:35.354Z,26.27
2022-12-26T06:42:14.920Z,26.83
2022-12-26T06:44:45.157Z,26.55
2022-12-26T06:47:19.898Z,27.65
2022-12-26T06:49:57.880Z,28.77
2022-12-26T06:52:41.643Z,23.80
2022-12-26T06:55:09.456Z,26.52
2022-12-26T06:57:48.956Z,23.13
2022-12-26T07:00:23.658Z,23.80
2022-12-26T07:03:07.782Z,23.38
2022-12-26T07:05:42.100Z,23.33
2022-12-26T07:08:21.966Z,21.27
2022-12-26T07:10:49.537Z,22.33
2022-12-26T07:13:24.452Z,21.15
2022-12-26T07:15:58.008Z,23.02
2022-12-26T07:18:32.729Z,21.20
2022-12-26T07:21:03.482Z,18.10
2022-12-26T07:23:38.581Z,19.45
2022-12-26T07:26:09.441Z,16.92
2022-12-26T07:37:42.776Z,16.05
2022-12-26T07:43:04.350Z,12.60
2022-12-26T07:48:37.638Z,10.35
2022-12-26T07:54:57.773Z,11.07
2022-12-26T07:57:48.747Z,10.70
2022-12-26T08:05:58.337Z,9.30
2022-12-26T08:08:35.894Z,11.48
2022-12-26T08:11:08.241Z,11.38
2022-12-26T08:13:42.464Z,11.25
2022-12-26T08:18:58.151Z,11.57
2022-12-26T08:21:28.029Z,12.68
2022-12-26T08:24:05.724Z,11.18
2022-12-26T08:26:37.721Z,9.95
2022-12-26T08:35:27.368Z,10.43
2022-12-26T08:40:43.546Z,10.55
2022-12-26T08:53:09.086Z,9.90
2022-12-26T08:59:11.873Z,11.55
2022-12-26T09:10:49.831Z,8.30
2022-12-26T09:13:39.551Z,8.25
2022-12-26T09:16:17.345Z,9.63
2022-12-26T09:24:44.022Z,6.40
2022-12-26T09:27:15.061Z,6.45
2022-12-26T09:36:14.495Z,6.00
2022-12-26T09:38:50.866Z,6.38
2022-12-26T09:42:00.638Z,4.40
2022-12-26T09:44:49.913Z,4.93
2022-12-26T09:50:23.925Z,8.25
2022-12-26T09:53:20.554Z,3.67
2022-12-26T09:56:37.029Z,6.13
2022-12-26T10:01:55.857Z,5.05
2022-12-26T10:07:38.191Z,3.65
2022-12-26T10:10:29.005Z,8.93
2022-12-26T10:16:54.829Z,11.05
2022-12-26T10:40:29.565Z,5.93
2022-12-26T10:43:03.905Z,4.72
2022-12-26T10:49:06.082Z,4.90
2022-12-26T10:58:17.467Z,5.20
2022-12-26T11:13:08.621Z,5.25
2022-12-26T11:15:41.656Z,7.90
2022-12-26T11:43:12.032Z,6.23
2022-12-26T11:53:03.970Z,5.53
2022-12-26T11:55:56.534Z,4.63
2022-12-26T12:02:43.732Z,7.63
2022-12-26T12:05:23.546Z,7.83
2022-12-26T12:08:21.724Z,9.77
2022-12-26T12:11:32.627Z,5.23
2022-12-26T12:17:25.611Z,7.07
2022-12-26T12:20:39.552Z,3.90
2022-12-26T12:23:46.024Z,5.90
2022-12-26T12:26:28.701Z,7.23
2022-12-26T12:29:17.469Z,4.20
2022-12-26T12:32:18.572Z,4.77
2022-12-26T12:35:14.621Z,4.03
2022-12-26T12:38:00.759Z,7.63
2022-12-26T12:40:52.861Z,7.63
2022-12-26T12:43:52.240Z,9.10
2022-12-26T12:53:48.586Z,6.47
2022-12-26T12:57:06.608Z,5.43
2022-12-26T12:59:57.120Z,4.07
2022-12-26T13:02:41.658Z,4.65
2022-12-26T13:05:26.702Z,5.20
2022-12-26T13:11:37.603Z,5.87
2022-12-26T13:14:20.540Z,3.63
2022-12-26T13:26:33.641Z,6.23
2022-12-26T13:29:48.928Z,4.82
2022-12-26T13:32:28.824Z,5.22
2022-12-26T13:35:14.996Z,7.20
2022-12-26T13:37:42.006Z,5.20
2022-12-26T13:40:17.655Z,5.10
2022-12-26T13:43:25.002Z,4.53
2022-12-26T13:46:04.768Z,6.20
2022-12-26T13:51:59.128Z,3.45
2022-12-26T13:54:30.024Z,5.80
2022-12-26T13:57:36.993Z,3.60
2022-12-26T14:00:43.289Z,6.53
2022-12-26T14:03:50.913Z,4.13
2022-12-26T14:07:03.642Z,4.90
2022-12-26T14:09:34.715Z,3.53
2022-12-26T14:12:17.731Z,4.20
2022-12-26T14:18:56.676Z,5.67
2022-12-26T14:21:35.427Z,4.87
2022-12-26T14:24:17.833Z,3.97
2022-12-26T14:27:12.901Z,8.60
2022-12-26T14:30:25.737Z,5.40
2022-12-26T14:33:17.063Z,3.83
2022-12-26T14:36:34.687Z,9.03
2022-12-26T14:42:31.679Z,6.23
2022-12-26T14:45:09.667Z,7.43
2022-12-26T14:47:55.619Z,6.43
2022-12-26T14:50:43.503Z,10.63
2022-12-26T14:56:22.734Z,6.97
2022-12-26T14:59:27.648Z,7.33
2022-12-26T15:02:27.907Z,7.30
2022-12-26T15:05:19.694Z,6.03
2022-12-26T15:08:20.079Z,6.67
2022-12-26T15:11:15.088Z,7.10
2022-12-26T15:14:20.682Z,7.70
2022-12-26T15:17:18.923Z,10.73
2022-12-26T15:20:13.724Z,8.10
2022-12-26T15:23:11.274Z,5.30
2022-12-26T15:25:51.115Z,5.70
2022-12-26T15:28:41.792Z,5.43
2022-12-26T15:31:37.233Z,7.33
2022-12-26T15:37:24.704Z,9.30
2022-12-26T15:40:08.843Z,6.07
2022-12-26T15:42:54.366Z,5.77
2022-12-26T15:48:22.511Z,7.17
2022-12-26T15:51:53.862Z,6.63
2022-12-26T15:55:05.962Z,9.33
2022-12-26T15:57:53.052Z,6.70
2022-12-26T16:00:32.785Z,5.67
2022-12-26T16:03:37.318Z,7.57
2022-12-26T16:06:51.736Z,8.00
2022-12-26T16:09:49.856Z,7.77
2022-12-26T16:12:37.615Z,5.67
2022-12-26T16:15:18.489Z,7.63
2022-12-26T16:17:49.139Z,7.77
2022-12-26T16:20:54.990Z,6.70
2022-12-26T16:23:30.161Z,6.10
2022-12-26T16:26:07.768Z,4.37
2022-12-26T16:28:42.146Z,5.90
2022-12-26T16:31:16.800Z,6.70
2022-12-26T16:33:55.003Z,10.63
2022-12-26T16:36:35.786Z,7.30
2022-12-26T16:39:17.698Z,4.60
2022-12-26T16:44:47.826Z,4.53
2022-12-26T16:47:30.320Z,6.20
2022-12-26T16:49:58.882Z,5.30
2022-12-26T16:52:49.758Z,6.17
2022-12-26T16:55:30.588Z,5.80
2022-12-26T16:58:30.720Z,7.87
2022-12-26T17:14:45.135Z,6.43
2022-12-26T17:17:30.675Z,3.53
2022-12-26T17:26:37.923Z,9.17
2022-12-26T17:29:12.973Z,5.10
2022-12-26T17:31:49.226Z,5.10
2022-12-26T17:37:42.983Z,6.43
2022-12-26T17:40:23.223Z,6.20
2022-12-26T17:43:01.859Z,6.67
2022-12-26T17:45:49.255Z,9.27
2022-12-26T17:48:28.000Z,5.07
2022-12-26T17:51:04.928Z,7.20
2022-12-26T17:53:44.345Z,6.63
2022-12-26T17:56:39.583Z,6.93
2022-12-26T17:59:25.673Z,4.30
2022-12-26T18:02:07.014Z,5.40
2022-12-26T18:05:06.899Z,5.77
2022-12-26T18:07:43.665Z,9.17
2022-12-26T18:10:25.097Z,3.10
2022-12-26T18:13:00.059Z,7.60
2022-12-26T18:15:31.376Z,8.30
2022-12-26T18:18:10.902Z,10.10
2022-12-26T18:20:38.847Z,6.13
2022-12-26T18:23:18.491Z,9.67
2022-12-26T18:28:38.593Z,8.77
2022-12-26T18:31:14.874Z,8.37
2022-12-26T18:33:54.014Z,9.17
2022-12-26T18:36:28.183Z,7.70
2022-12-26T18:44:30.179Z,5.33
2022-12-26T18:49:46.953Z,5.97
2022-12-26T18:52:18.593Z,7.87
2022-12-26T18:54:55.097Z,7.67
2022-12-26T19:01:08.872Z,8.13
2022-12-26T19:03:45.323Z,9.60
2022-12-26T19:06:25.151Z,5.43
2022-12-26T19:09:11.511Z,5.27
2022-12-26T19:14:36.363Z,5.87
2022-12-26T19:17:29.476Z,4.13
2022-12-26T19:20:02.024Z,6.50
2022-12-26T19:25:22.106Z,8.77
2022-12-26T19:28:05.085Z,8.30
2022-12-26T19:30:42.523Z,5.97
2022-12-26T19:33:19.105Z,4.90
2022-12-26T19:35:47.605Z,10.13
2022-12-26T19:38:22.162Z,3.70
2022-12-26T19:40:51.722Z,7.10
2022-12-26T19:43:32.396Z,6.13
2022-12-26T19:46:05.583Z,5.57
2022-12-26T19:48:42.846Z,5.83
2022-12-26T19:51:15.463Z,8.03
2022-12-26T19:56:35.034Z,11.03
2022-12-26T19:59:18.540Z,12.13
2022-12-26T20:01:49.212Z,4.57
2022-12-26T20:04:34.152Z,5.87
2022-12-26T20:07:03.657Z,4.63
2022-12-26T20:09:41.227Z,7.53
2022-12-26T20:12:12.571Z,7.57
2022-12-26T20:14:52.521Z,5.10
2022-12-26T20:17:23.033Z,6.93
2022-12-26T20:22:52.846Z,6.57
2022-12-26T20:28:07.181Z,8.50
2022-12-26T20:45:52.661Z,8.40
2022-12-26T20:48:27.240Z,7.17
2022-12-26T20:51:10.055Z,10.43
2022-12-26T20:53:42.210Z,5.37
2022-12-26T20:59:16.896Z,6.37
2022-12-26T21:02:08.043Z,6.33
2022-12-26T21:04:58.423Z,11.17
2022-12-26T21:07:39.487Z,4.27
2022-12-26T21:16:19.539Z,4.77
2022-12-26T21:18:55.583Z,8.50
2022-12-26T21:21:42.966Z,5.70
2022-12-26T21:27:27.471Z,6.40
2022-12-26T21:30:07.034Z,5.30
2022-12-26T21:33:01.114Z,7.53
2022-12-26T21:35:50.232Z,4.30
2022-12-26T21:38:33.989Z,7.43
2022-12-26T21:43:55.019Z,3.27
2022-12-26T21:46:35.012Z,4.53
2022-12-26T21:49:06.316Z,7.40
2022-12-26T22:01:43.760Z,3.63
2022-12-26T22:08:05.912Z,7.47
2022-12-26T22:23:35.622Z,5.77
2022-12-26T22:26:12.067Z,5.77
2022-12-26T22:28:50.929Z,9.10
2022-12-26T22:31:23.445Z,3.90
2022-12-26T22:34:20.399Z,6.97
2022-12-26T22:48:34.661Z,5.33
2022-12-26T22:53:56.000Z,6.83
2022-12-26T23:02:00.429Z,7.30
2022-12-26T23:10:47.447Z,7.70
2022-12-26T23:20:15.384Z,9.07
2022-12-26T23:29:49.062Z,6.00
2022-12-26T23:37:48.082Z,5.63
2022-12-26T23:40:26.204Z,6.57
2022-12-26T23:52:24.175Z,5.80
